Brandon, SD (57005)

6:35 PM CDT on August 27, 2016 (GMT -0500)
IEM | | Change Station

Elev 1368 ft 43.60 °N, 96.58 °W | Updated 19 minutes ago

Partly Cloudy
Partly Cloudy
75 °F
Feels Like 76 °F
N
8
Wind Variable Wind from North
Gusts 0.0 mph

Today
High -- | Low -- °F
--% Chance of Precip.
Yesterday
High -- | Low -- °F
Precip. -- in
Pressure 29.96 in
Visibility 10.0 miles
Clouds Few 3000 ft
Few 25000 ft
Heat Index 76 °F
Dew Point 68 °F
Humidity 78%
Rainfall in
Snow Depth Not available.
6:45 AM 8:09 PM
Waning Crescent, 20% visible
METAR KFSD 272256Z 19007KT 10SM FEW030 FEW250 25/18 A2998 RMK AO2 SLP146 T02500183
Pressure 29.96 in
Visibility 10.0 miles
Clouds Few 3000 ft
Few 25000 ft
Heat Index 76 °F
Dew Point 68 °F
Humidity 78%
Rainfall in
Snow Depth Not available.
6:45 AM 8:09 PM
Waning Crescent, 20% visible
METAR KFSD 272256Z 19007KT 10SM FEW030 FEW250 25/18 A2998 RMK AO2 SLP146 T02500183

10-Day Weather Forecast

Almanac

Astronomy

Aug. 27, 2016 Rise Set
Actual Time
Civil Twilight
Nautical Twilight
Astronomical Twilight
Moon
Length of Visible Light
Length of Day
Tomorrow will be .
, % of the Moon is Illuminated

Today's Extremes

State Highs State Lows

Community

WunderPhotos

Upload Photos

1,935,468 photos uploaded!

WunderBlog® & News

Nearby

Air Quality

  Air Quality AQ Index Pollutant
Not available.

Snow Depth

Station Depth Elevation

Earthquake Activity

City Distance Mag. Time & Date
Minimum magnitude displayed is 2.5.

Coastal Water Temperatures

Place Temperature

Stations

Nearby Weather Stations

Station Location Temp. Windchill Dew Point Humidity Wind Precip. Elev Updated Type
                   

Watches & Warnings

There are currently no watches in effect.